Time;durP1;ratioP1;P1;durP2;ratioP2;P2;SDS_P1;SDS_P2;PMS_P1;PMS_P2;Temp;Humidity;BMP_temperature;BMP_pressure;BME280_temperature;BME280_humidity;BME280_pressure;Samples;Min_cycle;Max_cycle;Signal;HPM_P1;HPM_P2
2021/01/13 00:00:04;;;;;;;4.87;4.23;;;;;;;;;;5013908;28;20205;-77
2021/01/13 00:02:30;;;;;;;7.80;4.38;;;;;;;;;;5014822;28;20531;-76
2021/01/13 00:04:56;;;;;;;4.73;4.33;;;;;;;;;;5014180;28;20224;-77
2021/01/13 00:07:22;;;;;;;7.33;5.23;;;;;;;;;;5014144;28;20494;-77
2021/01/13 00:09:48;;;;;;;4.20;3.80;;;;;;;;;;5013795;28;20452;-78
2021/01/13 00:12:14;;;;;;;6.03;4.50;;;;;;;;;;5013637;28;20964;-77
2021/01/13 00:14:42;;;;;;;7.80;5.43;;;;;;;;;;5012796;28;20563;-77
2021/01/13 00:17:08;;;;;;;7.75;5.82;;;;;;;;;;5013389;28;20529;-74
2021/01/13 00:19:34;;;;;;;7.57;5.30;;;;;;;;;;5013864;28;20296;-75
2021/01/13 00:22:00;;;;;;;6.20;4.45;;;;;;;;;;5013126;28;20452;-77
2021/01/13 00:24:26;;;;;;;9.68;5.18;;;;;;;;;;5014085;28;20181;-76
2021/01/13 00:27:00;;;;;;;6.32;4.90;;;;;;;;;;5013836;28;20178;-77
2021/01/13 00:29:26;;;;;;;10.40;5.47;;;;;;;;;;5013697;28;20170;-76
2021/01/13 00:31:55;;;;;;;8.85;4.20;;;;;;;;;;5012266;28;20170;-75
2021/01/13 00:34:21;;;;;;;6.22;4.45;;;;;;;;;;5013386;28;20178;-76
2021/01/13 00:36:47;;;;;;;7.57;4.53;;;;;;;;;;5013287;28;20202;-77
2021/01/13 00:39:13;;;;;;;6.07;4.20;;;;;;;;;;5013953;28;20441;-77
2021/01/13 00:41:39;;;;;;;5.03;3.97;;;;;;;;;;5013630;28;20439;-77
2021/01/13 00:44:06;;;;;;;4.40;3.35;;;;;;;;;;5014191;28;20210;-77
2021/01/13 00:46:36;;;;;;;4.10;3.70;;;;;;;;;;5013445;28;20177;-75
2021/01/13 00:49:02;;;;;;;5.70;4.15;;;;;;;;;;5012777;28;20249;-76
2021/01/13 00:51:35;;;;;;;4.80;4.25;;;;;;;;;;5013331;28;20229;-76
2021/01/13 00:54:01;;;;;;;4.90;4.20;;;;;;;;;;5012730;28;20252;-76
2021/01/13 00:56:27;;;;;;;5.53;3.83;;;;;;;;;;5013700;28;20297;-76
2021/01/13 00:58:53;;;;;;;6.53;4.40;;;;;;;;;;5013036;28;20429;-76
2021/01/13 01:01:19;;;;;;;6.33;3.27;;;;;;;;;;5003248;28;20184;-75
2021/01/13 01:03:45;;;;;;;4.25;3.40;;;;;;;;;;5011362;28;20532;-77
2021/01/13 01:06:14;;;;;;;5.20;4.70;;;;;;;;;;5012864;28;20663;-76
2021/01/13 01:08:40;;;;;;;4.75;3.63;;;;;;;;;;5013487;28;20493;-76
2021/01/13 01:11:06;;;;;;;4.27;3.63;;;;;;;;;;5012562;28;20185;-76
2021/01/13 01:13:32;;;;;;;6.90;3.30;;;;;;;;;;5013544;28;20432;-76
2021/01/13 01:15:58;;;;;;;6.20;3.50;;;;;;;;;;5013329;28;20227;-75
2021/01/13 01:18:24;;;;;;;3.57;3.23;;;;;;;;;;5012672;28;20260;-76
2021/01/13 01:20:50;;;;;;;5.93;3.50;;;;;;;;;;5012774;28;20472;-75
2021/01/13 01:23:16;;;;;;;3.60;2.70;;;;;;;;;;5010991;28;20953;-76
2021/01/13 01:25:42;;;;;;;3.90;3.20;;;;;;;;;;5013002;28;20432;-76
2021/01/13 01:28:08;;;;;;;5.40;3.07;;;;;;;;;;5011597;28;20440;-76
2021/01/13 01:30:34;;;;;;;4.00;2.70;;;;;;;;;;5012584;28;20527;-76
2021/01/13 01:33:00;;;;;;;6.47;4.03;;;;;;;;;;5012939;28;20992;-77
2021/01/13 01:35:26;;;;;;;6.53;3.67;;;;;;;;;;5012426;28;20579;-76
2021/01/13 01:37:52;;;;;;;5.43;4.00;;;;;;;;;;5012143;28;20662;-76
2021/01/13 01:40:19;;;;;;;5.63;3.17;;;;;;;;;;5012212;28;20440;-75
2021/01/13 01:42:48;;;;;;;4.90;3.17;;;;;;;;;;5012775;28;20207;-76
2021/01/13 01:45:16;;;;;;;4.05;3.10;;;;;;;;;;5012359;28;20178;-76
2021/01/13 01:47:42;;;;;;;7.35;3.90;;;;;;;;;;5012180;28;20507;-75
2021/01/13 01:50:09;;;;;;;4.50;3.40;;;;;;;;;;5010565;28;20196;-75
2021/01/13 01:52:36;;;;;;;3.38;2.97;;;;;;;;;;5011787;28;20437;-76
2021/01/13 01:55:03;;;;;;;4.47;2.97;;;;;;;;;;5012732;28;20571;-76
2021/01/13 01:57:33;;;;;;;4.25;3.13;;;;;;;;;;5012402;28;20209;-76
2021/01/13 02:00:06;;;;;;;5.40;2.97;;;;;;;;;;5010968;28;20177;-76
2021/01/13 02:02:36;;;;;;;5.25;3.40;;;;;;;;;;5012903;28;20474;-75
2021/01/13 02:05:03;;;;;;;3.50;3.00;;;;;;;;;;5011595;28;20283;-76
2021/01/13 02:07:33;;;;;;;7.78;3.65;;;;;;;;;;5012594;28;20186;-75
2021/01/13 02:10:00;;;;;;;3.50;2.92;;;;;;;;;;5012456;28;20174;-76
2021/01/13 02:12:27;;;;;;;5.47;3.42;;;;;;;;;;5012211;28;20174;-77
2021/01/13 02:14:53;;;;;;;4.85;2.97;;;;;;;;;;5012744;28;20182;-78
2021/01/13 02:17:23;;;;;;;5.13;2.70;;;;;;;;;;5012114;28;20241;-77
2021/01/13 02:19:49;;;;;;;4.63;2.75;;;;;;;;;;5012104;28;20708;-77
2021/01/13 02:22:17;;;;;;;7.13;3.10;;;;;;;;;;5011363;28;20191;-77
2021/01/13 02:24:58;;;;;;;5.88;2.78;;;;;;;;;;5012547;28;20779;-77
2021/01/13 02:27:27;;;;;;;3.58;3.22;;;;;;;;;;5012414;28;20178;-76
2021/01/13 02:29:58;;;;;;;4.38;2.80;;;;;;;;;;5012131;28;20269;-76
2021/01/13 02:32:35;;;;;;;3.25;2.95;;;;;;;;;;5012072;28;20173;-77
2021/01/13 02:35:05;;;;;;;11.27;3.30;;;;;;;;;;5011895;28;20213;-77
2021/01/13 02:37:36;;;;;;;3.10;2.85;;;;;;;;;;5011970;28;20217;-77
2021/01/13 02:40:07;;;;;;;4.10;2.67;;;;;;;;;;5011843;28;20272;-77
2021/01/13 02:42:36;;;;;;;3.13;2.80;;;;;;;;;;5010721;28;20265;-76
2021/01/13 02:45:02;;;;;;;3.53;2.75;;;;;;;;;;5011437;28;20193;-77
2021/01/13 02:47:32;;;;;;;5.47;2.45;;;;;;;;;;5012111;28;20253;-76
2021/01/13 02:49:59;;;;;;;3.88;2.55;;;;;;;;;;5012098;28;20259;-77
2021/01/13 02:52:26;;;;;;;6.63;2.15;;;;;;;;;;5015518;28;20306;-76
2021/01/13 02:54:54;;;;;;;5.05;2.58;;;;;;;;;;5015566;28;20641;-76
2021/01/13 02:57:22;;;;;;;3.45;2.30;;;;;;;;;;5015402;28;20212;-76
2021/01/13 02:59:48;;;;;;;4.03;2.20;;;;;;;;;;5015036;28;20174;-76
2021/01/13 03:02:15;;;;;;;2.63;2.10;;;;;;;;;;5015492;28;20236;-77
2021/01/13 03:04:41;;;;;;;5.15;2.53;;;;;;;;;;5015067;28;20182;-77
2021/01/13 03:07:15;;;;;;;2.90;2.60;;;;;;;;;;5014765;28;20178;-76
2021/01/13 03:09:48;;;;;;;2.13;1.88;;;;;;;;;;5015531;28;20178;-76
2021/01/13 03:12:18;;;;;;;3.88;2.15;;;;;;;;;;5014764;28;20196;-77
2021/01/13 03:14:50;;;;;;;3.28;2.10;;;;;;;;;;5015251;28;20174;-77
2021/01/13 03:17:36;;;;;;;1.58;1.48;;;;;;;;;;5013793;28;20201;-77
2021/01/13 03:20:21;;;;;;;2.70;2.10;;;;;;;;;;5012636;28;20213;-77
2021/01/13 03:23:05;;;;;;;4.78;1.80;;;;;;;;;;5012364;28;20473;-77
2021/01/13 03:25:45;;;;;;;2.22;2.00;;;;;;;;;;5014763;28;20176;-77
2021/01/13 03:28:11;;;;;;;5.25;2.33;;;;;;;;;;5014017;28;20193;-76
2021/01/13 03:30:38;;;;;;;4.50;2.55;;;;;;;;;;5009304;28;20178;-76
2021/01/13 03:33:04;;;;;;;2.55;1.92;;;;;;;;;;5014818;28;20564;-76
2021/01/13 03:35:38;;;;;;;4.23;2.43;;;;;;;;;;5014401;28;20174;-76
2021/01/13 03:38:08;;;;;;;5.38;2.97;;;;;;;;;;5003991;28;20472;-75
2021/01/13 03:40:34;;;;;;;4.00;2.72;;;;;;;;;;5014554;28;20280;-76
2021/01/13 03:43:00;;;;;;;2.85;2.30;;;;;;;;;;5015024;28;20228;-76
2021/01/13 03:45:32;;;;;;;5.53;2.90;;;;;;;;;;5013981;28;20293;-76
2021/01/13 03:48:10;;;;;;;2.97;2.67;;;;;;;;;;5014530;28;20201;-76
2021/01/13 03:50:38;;;;;;;4.13;2.67;;;;;;;;;;5008527;28;20193;-76
2021/01/13 03:53:11;;;;;;;2.20;1.98;;;;;;;;;;5014010;28;20249;-76
2021/01/13 03:55:38;;;;;;;5.07;2.13;;;;;;;;;;5014091;28;20492;-77
2021/01/13 03:58:12;;;;;;;5.53;2.53;;;;;;;;;;5014221;28;20206;-75
2021/01/13 04:00:47;;;;;;;3.03;2.30;;;;;;;;;;5014243;28;20189;-78
2021/01/13 04:03:22;;;;;;;6.53;2.70;;;;;;;;;;5013318;28;20191;-76
2021/01/13 04:06:02;;;;;;;3.15;2.05;;;;;;;;;;5013919;28;20586;-76
2021/01/13 04:08:33;;;;;;;5.03;2.63;;;;;;;;;;5014188;28;20509;-75
2021/01/13 04:10:59;;;;;;;2.97;2.10;;;;;;;;;;5012460;28;20177;-75
2021/01/13 04:13:34;;;;;;;4.35;2.50;;;;;;;;;;5014247;28;20177;-76
2021/01/13 04:16:00;;;;;;;5.00;3.15;;;;;;;;;;5013695;28;20208;-76
2021/01/13 04:18:26;;;;;;;8.05;3.25;;;;;;;;;;5014116;28;20174;-76
2021/01/13 04:20:53;;;;;;;2.75;2.25;;;;;;;;;;5013278;28;20375;-75
2021/01/13 04:23:19;;;;;;;2.97;2.35;;;;;;;;;;5013540;28;20192;-75
2021/01/13 04:25:45;;;;;;;4.35;2.85;;;;;;;;;;5013924;28;20173;-76
2021/01/13 04:28:11;;;;;;;5.63;3.42;;;;;;;;;;5013942;28;20189;-76
2021/01/13 04:30:37;;;;;;;9.07;2.60;;;;;;;;;;5013154;28;20271;-76
2021/01/13 04:33:04;;;;;;;2.55;2.35;;;;;;;;;;5014045;28;20174;-77
2021/01/13 04:35:30;;;;;;;5.05;2.25;;;;;;;;;;5013476;28;20281;-77
2021/01/13 04:37:56;;;;;;;3.53;2.70;;;;;;;;;;5013355;28;20661;-77
2021/01/13 04:40:22;;;;;;;5.97;2.80;;;;;;;;;;5013135;28;20680;-77
2021/01/13 04:42:59;;;;;;;3.40;2.63;;;;;;;;;;5013725;28;20190;-77
2021/01/13 04:45:34;;;;;;;9.85;2.97;;;;;;;;;;5013478;28;20519;-77
2021/01/13 04:48:26;;;;;;;4.18;2.85;;;;;;;;;;5012921;28;20671;-77
2021/01/13 04:50:52;;;;;;;10.70;2.92;;;;;;;;;;5012290;28;20201;-76
2021/01/13 04:53:19;;;;;;;5.65;3.00;;;;;;;;;;5012984;28;20635;-77
2021/01/13 04:55:45;;;;;;;9.10;3.25;;;;;;;;;;5013314;28;20174;-77
2021/01/13 04:58:17;;;;;;;3.17;2.33;;;;;;;;;;5013080;28;20320;-77
2021/01/13 05:01:02;;;;;;;5.45;3.05;;;;;;;;;;5012279;28;20456;-76
2021/01/13 05:03:40;;;;;;;4.80;2.90;;;;;;;;;;5013363;28;20178;-76
2021/01/13 05:06:18;;;;;;;4.13;3.03;;;;;;;;;;5011288;28;20580;-76
2021/01/13 05:08:55;;;;;;;5.75;3.20;;;;;;;;;;5012354;28;20170;-76
2021/01/13 05:11:21;;;;;;;4.07;3.78;;;;;;;;;;5012577;28;20482;-76
2021/01/13 05:13:47;;;;;;;4.03;2.85;;;;;;;;;;5011372;28;20182;-76
2021/01/13 05:16:14;;;;;;;6.78;3.97;;;;;;;;;;5009244;28;20216;-76
2021/01/13 05:18:54;;;;;;;3.90;3.60;;;;;;;;;;5012194;28;20186;-76
2021/01/13 05:21:29;;;;;;;4.55;2.35;;;;;;;;;;5010590;28;20197;-76
2021/01/13 05:23:56;;;;;;;8.88;2.90;;;;;;;;;;5011496;28;20265;-75
2021/01/13 05:26:23;;;;;;;5.35;3.50;;;;;;;;;;5011224;28;20232;-77
2021/01/13 05:29:08;;;;;;;6.50;3.35;;;;;;;;;;5012003;28;20205;-77
2021/01/13 05:31:37;;;;;;;5.70;3.17;;;;;;;;;;5008894;28;20189;-78
2021/01/13 05:34:04;;;;;;;6.30;2.50;;;;;;;;;;5010177;28;20185;-75
2021/01/13 05:36:33;;;;;;;5.60;2.97;;;;;;;;;;5011684;28;20232;-75
2021/01/13 05:38:59;;;;;;;3.20;2.92;;;;;;;;;;5011327;28;20181;-76
2021/01/13 05:41:25;;;;;;;3.43;2.47;;;;;;;;;;5012039;28;20668;-76
2021/01/13 05:43:51;;;;;;;4.38;3.38;;;;;;;;;;5010843;28;20433;-77
2021/01/13 05:46:19;;;;;;;5.30;2.95;;;;;;;;;;5012025;28;20536;-76
2021/01/13 05:48:52;;;;;;;9.57;3.85;;;;;;;;;;5012512;28;20597;-76
2021/01/13 05:51:28;;;;;;;5.47;3.22;;;;;;;;;;5011490;28;20194;-77
2021/01/13 05:53:54;;;;;;;4.05;2.65;;;;;;;;;;5001620;28;20181;-76
2021/01/13 05:56:20;;;;;;;3.13;2.83;;;;;;;;;;5012020;28;20284;-75
2021/01/13 05:58:47;;;;;;;4.35;2.88;;;;;;;;;;5012464;28;20715;-75
2021/01/13 06:01:39;;;;;;;13.57;3.20;;;;;;;;;;5010727;28;20200;-76
2021/01/13 06:04:06;;;;;;;5.30;3.08;;;;;;;;;;5011016;28;20208;-76
2021/01/13 06:06:36;;;;;;;5.00;2.75;;;;;;;;;;5011871;28;20182;-77
2021/01/13 06:09:03;;;;;;;8.93;3.72;;;;;;;;;;5007464;28;20194;-77
2021/01/13 06:11:30;;;;;;;4.45;2.97;;;;;;;;;;5007427;28;20204;-76
2021/01/13 06:13:57;;;;;;;3.45;2.30;;;;;;;;;;5009255;28;20196;-76
2021/01/13 06:16:23;;;;;;;3.65;3.15;;;;;;;;;;5008811;28;20537;-74
2021/01/13 06:18:52;;;;;;;5.05;2.88;;;;;;;;;;5008972;28;20204;-76
2021/01/13 06:21:18;;;;;;;5.75;2.83;;;;;;;;;;5007376;28;20200;-76
2021/01/13 06:23:48;;;;;;;5.55;2.80;;;;;;;;;;5008851;28;20212;-76
2021/01/13 06:26:14;;;;;;;3.53;2.85;;;;;;;;;;5010811;28;20714;-75
2021/01/13 06:28:52;;;;;;;3.08;2.53;;;;;;;;;;5012329;28;20201;-75
2021/01/13 06:31:23;;;;;;;5.95;3.05;;;;;;;;;;5011463;28;20583;-75
2021/01/13 06:34:05;;;;;;;4.57;2.65;;;;;;;;;;5012347;28;20221;-75
2021/01/13 06:36:34;;;;;;;3.30;2.85;;;;;;;;;;5009456;28;20227;-76
2021/01/13 06:39:06;;;;;;;3.00;2.63;;;;;;;;;;5010714;28;20340;-75
2021/01/13 06:41:44;;;;;;;3.30;3.10;;;;;;;;;;5012860;28;20185;-76
2021/01/13 06:44:10;;;;;;;5.93;3.67;;;;;;;;;;5012177;28;20197;-75
2021/01/13 06:46:36;;;;;;;4.90;3.17;;;;;;;;;;5010412;28;20240;-76
2021/01/13 06:49:11;;;;;;;4.60;3.28;;;;;;;;;;5011956;28;20444;-74
2021/01/13 06:51:41;;;;;;;3.22;2.92;;;;;;;;;;5010023;28;20193;-75
2021/01/13 06:54:07;;;;;;;5.75;3.30;;;;;;;;;;5012184;28;20244;-79
2021/01/13 06:56:35;;;;;;;7.25;3.20;;;;;;;;;;5009962;28;20304;-79
2021/01/13 06:59:01;;;;;;;3.65;2.80;;;;;;;;;;5011171;28;20242;-80
2021/01/13 07:01:28;;;;;;;2.85;2.35;;;;;;;;;;5013109;28;20243;-78
2021/01/13 07:03:58;;;;;;;6.78;3.10;;;;;;;;;;5011436;28;20190;-77
2021/01/13 07:06:24;;;;;;;3.53;2.83;;;;;;;;;;5010064;28;20197;-76
2021/01/13 07:08:52;;;;;;;4.63;3.75;;;;;;;;;;5011222;28;20548;-77
2021/01/13 07:11:18;;;;;;;6.85;3.92;;;;;;;;;;5012159;28;20189;-76
2021/01/13 07:13:54;;;;;;;5.10;3.80;;;;;;;;;;5011125;28;20193;-76
2021/01/13 07:16:26;;;;;;;5.80;3.92;;;;;;;;;;5012688;28;20363;-76
2021/01/13 07:18:55;;;;;;;9.27;4.00;;;;;;;;;;5012630;28;20559;-75
2021/01/13 07:21:21;;;;;;;6.60;4.15;;;;;;;;;;5014577;28;20169;-75
2021/01/13 07:23:47;;;;;;;5.63;3.40;;;;;;;;;;5014075;28;20181;-75
2021/01/13 07:26:13;;;;;;;7.45;4.20;;;;;;;;;;5014286;28;20192;-75
2021/01/13 07:28:40;;;;;;;6.63;3.55;;;;;;;;;;5012693;28;20201;-76
2021/01/13 07:31:07;;;;;;;6.00;3.58;;;;;;;;;;5014618;28;20170;-76
2021/01/13 07:33:35;;;;;;;4.35;3.85;;;;;;;;;;5014439;28;20166;-75
2021/01/13 07:36:02;;;;;;;6.82;3.90;;;;;;;;;;5012740;28;20169;-76
2021/01/13 07:38:34;;;;;;;9.00;4.80;;;;;;;;;;5012705;28;20189;-76
2021/01/13 07:41:05;;;;;;;4.68;3.85;;;;;;;;;;5013180;28;20178;-76
2021/01/13 07:43:46;;;;;;;4.90;3.90;;;;;;;;;;5013249;28;20169;-76
2021/01/13 07:46:25;;;;;;;6.07;4.57;;;;;;;;;;5013517;28;20283;-77
2021/01/13 07:48:51;;;;;;;5.95;5.22;;;;;;;;;;5013877;28;20590;-75
2021/01/13 07:51:19;;;;;;;8.63;4.70;;;;;;;;;;5013500;28;20162;-76
2021/01/13 07:53:56;;;;;;;4.18;3.85;;;;;;;;;;5013739;28;20489;-76
2021/01/13 07:56:26;;;;;;;8.82;5.03;;;;;;;;;;5013721;28;20205;-76
2021/01/13 07:59:10;;;;;;;5.10;4.50;;;;;;;;;;5014670;28;20509;-76
2021/01/13 08:01:42;;;;;;;6.30;4.93;;;;;;;;;;5014764;28;20174;-77
2021/01/13 08:04:20;;;;;;;6.78;5.53;;;;;;;;;;5014640;28;20628;-78
2021/01/13 08:06:46;;;;;;;7.97;5.55;;;;;;;;;;5012693;28;20178;-77
2021/01/13 08:09:16;;;;;;;9.95;5.72;;;;;;;;;;5013707;28;20170;-77
2021/01/13 08:12:01;;;;;;;5.90;5.35;;;;;;;;;;5013672;28;20178;-77
2021/01/13 08:14:30;;;;;;;11.27;4.90;;;;;;;;;;5013659;28;20223;-76
2021/01/13 08:16:58;;;;;;;8.93;5.05;;;;;;;;;;5013361;28;20699;-77
2021/01/13 08:19:35;;;;;;;10.45;5.85;;;;;;;;;;5013105;28;20222;-76
2021/01/13 08:22:09;;;;;;;8.13;6.57;;;;;;;;;;5013059;28;20174;-78
2021/01/13 08:24:45;;;;;;;6.78;5.90;;;;;;;;;;5012598;28;20173;-77
2021/01/13 08:27:11;;;;;;;7.80;5.10;;;;;;;;;;5012995;28;20169;-77
2021/01/13 08:29:39;;;;;;;6.68;5.43;;;;;;;;;;5013009;28;20585;-77
2021/01/13 08:32:09;;;;;;;9.73;4.90;;;;;;;;;;5013042;28;20216;-77
2021/01/13 08:34:45;;;;;;;8.15;5.15;;;;;;;;;;5011903;28;20300;-76
2021/01/13 08:37:11;;;;;;;7.90;5.15;;;;;;;;;;5012758;28;20292;-77
2021/01/13 08:39:38;;;;;;;5.93;4.50;;;;;;;;;;5013224;28;20661;-77
2021/01/13 08:42:21;;;;;;;5.50;5.03;;;;;;;;;;5013122;28;20162;-76
2021/01/13 08:44:48;;;;;;;7.10;4.38;;;;;;;;;;5013065;28;20249;-76
2021/01/13 08:47:14;;;;;;;6.78;4.38;;;;;;;;;;5012957;28;20170;-77
2021/01/13 08:49:40;;;;;;;7.75;4.25;;;;;;;;;;5012692;28;20531;-76
2021/01/13 08:52:11;;;;;;;6.10;4.70;;;;;;;;;;5012729;28;20602;-76
2021/01/13 08:54:37;;;;;;;7.20;4.35;;;;;;;;;;5012830;28;20413;-77
2021/01/13 08:57:04;;;;;;;6.15;4.50;;;;;;;;;;5012817;28;20256;-77
2021/01/13 08:59:39;;;;;;;4.50;4.10;;;;;;;;;;5012610;28;20180;-77
2021/01/13 09:02:11;;;;;;;11.38;5.00;;;;;;;;;;5012210;28;20200;-76
2021/01/13 09:04:50;;;;;;;4.90;4.10;;;;;;;;;;5010960;28;20185;-75
2021/01/13 09:07:18;;;;;;;8.60;4.03;;;;;;;;;;5012381;28;20174;-76
2021/01/13 09:10:04;;;;;;;6.95;4.07;;;;;;;;;;5012377;28;20170;-76
2021/01/13 09:12:31;;;;;;;4.63;4.05;;;;;;;;;;5008544;28;20239;-76
2021/01/13 09:15:09;;;;;;;4.35;3.50;;;;;;;;;;5012682;28;20193;-77
2021/01/13 09:17:49;;;;;;;6.38;4.13;;;;;;;;;;5012084;28;20690;-74
2021/01/13 09:20:28;;;;;;;9.93;3.60;;;;;;;;;;5011165;28;20664;-77
2021/01/13 09:22:56;;;;;;;8.73;4.68;;;;;;;;;;5011291;28;20494;-78
2021/01/13 09:25:26;;;;;;;3.60;3.30;;;;;;;;;;5011748;28;20170;-77
2021/01/13 09:27:55;;;;;;;12.00;4.15;;;;;;;;;;5011705;28;20177;-77
2021/01/13 09:30:34;;;;;;;7.45;3.95;;;;;;;;;;5011225;28;20165;-73
2021/01/13 09:33:00;;;;;;;4.95;3.78;;;;;;;;;;5011691;28;20266;-75
2021/01/13 09:35:32;;;;;;;4.15;3.42;;;;;;;;;;5011402;28;20171;-74
2021/01/13 09:37:59;;;;;;;5.55;3.80;;;;;;;;;;5010875;28;20746;-76
2021/01/13 09:40:45;;;;;;;3.58;3.28;;;;;;;;;;5011102;28;20234;-75
2021/01/13 09:43:23;;;;;;;5.63;3.85;;;;;;;;;;5010765;28;20273;-74
2021/01/13 09:45:49;;;;;;;3.80;3.30;;;;;;;;;;5010955;28;20180;-75
2021/01/13 09:48:18;;;;;;;3.20;2.90;;;;;;;;;;5010898;28;20532;-75
2021/01/13 09:50:44;;;;;;;5.90;2.72;;;;;;;;;;5010738;28;20674;-75
2021/01/13 09:53:13;;;;;;;4.70;2.85;;;;;;;;;;5010565;28;20535;-76
2021/01/13 09:55:40;;;;;;;4.10;2.17;;;;;;;;;;5010810;28;20622;-76
2021/01/13 09:58:16;;;;;;;11.55;2.33;;;;;;;;;;5011140;28;20205;-76
2021/01/13 10:00:42;;;;;;;3.33;2.63;;;;;;;;;;5010160;28;20215;-75
2021/01/13 10:03:09;;;;;;;2.70;2.50;;;;;;;;;;5010665;28;20671;-76
2021/01/13 10:05:36;;;;;;;5.38;2.53;;;;;;;;;;5010512;28;20198;-75
2021/01/13 10:08:02;;;;;;;3.30;3.00;;;;;;;;;;5010923;28;20180;-75
2021/01/13 10:10:28;;;;;;;6.28;3.40;;;;;;;;;;5010736;28;20526;-76
2021/01/13 10:12:55;;;;;;;5.90;2.63;;;;;;;;;;5010727;28;20224;-76
2021/01/13 10:15:22;;;;;;;4.50;2.80;;;;;;;;;;5010651;28;20194;-76
2021/01/13 10:17:48;;;;;;;2.80;2.25;;;;;;;;;;5010270;28;20251;-74
2021/01/13 10:20:19;;;;;;;5.80;3.03;;;;;;;;;;5010473;28;20221;-76
2021/01/13 10:22:46;;;;;;;3.08;2.50;;;;;;;;;;5010238;28;20166;-75
2021/01/13 10:25:23;;;;;;;8.82;2.90;;;;;;;;;;5010581;28;20174;-76
2021/01/13 10:27:49;;;;;;;7.63;3.95;;;;;;;;;;5010531;28;20213;-76
2021/01/13 10:30:15;;;;;;;8.23;3.83;;;;;;;;;;5010433;28;20513;-76
2021/01/13 10:32:48;;;;;;;3.72;2.40;;;;;;;;;;5010481;28;20194;-75
2021/01/13 10:35:15;;;;;;;6.50;3.92;;;;;;;;;;5010278;28;20535;-77
2021/01/13 10:37:47;;;;;;;4.20;3.50;;;;;;;;;;5009960;28;20209;-77
2021/01/13 10:40:14;;;;;;;4.22;3.13;;;;;;;;;;5010500;28;20162;-76
2021/01/13 10:42:41;;;;;;;2.92;2.63;;;;;;;;;;5009152;28;20182;-77
2021/01/13 10:45:11;;;;;;;6.45;2.97;;;;;;;;;;5010510;28;20186;-76
2021/01/13 10:47:37;;;;;;;4.88;4.20;;;;;;;;;;5010612;28;20183;-76
2021/01/13 10:50:03;;;;;;;5.63;4.03;;;;;;;;;;5010732;28;20245;-76
2021/01/13 10:52:31;;;;;;;4.47;3.72;;;;;;;;;;5010130;28;20257;-78
2021/01/13 10:54:59;;;;;;;8.27;4.30;;;;;;;;;;5009319;28;20173;-77
2021/01/13 10:57:32;;;;;;;4.95;3.60;;;;;;;;;;5010461;28;20214;-77
2021/01/13 11:00:06;;;;;;;6.50;4.75;;;;;;;;;;5010559;28;20260;-78
2021/01/13 11:02:32;;;;;;;6.93;3.97;;;;;;;;;;5010298;28;20174;-78
2021/01/13 11:05:01;;;;;;;4.40;4.00;;;;;;;;;;5009858;28;20173;-78
2021/01/13 11:13:44;;;;;;;4.90;4.00;;;;;;;;;;5014253;28;20317;-78
2021/01/13 11:16:10;;;;;;;5.53;4.45;;;;;;;;;;5013890;28;20174;-77
2021/01/13 11:18:36;;;;;;;9.15;3.70;;;;;;;;;;5013488;28;20552;-77
2021/01/13 11:21:09;;;;;;;7.38;4.20;;;;;;;;;;5011990;28;20229;-76
2021/01/13 11:23:42;;;;;;;5.38;3.92;;;;;;;;;;5013474;28;20174;-77
2021/01/13 11:26:08;;;;;;;5.85;4.72;;;;;;;;;;5013414;28;20178;-75
2021/01/13 11:28:35;;;;;;;11.40;4.13;;;;;;;;;;5013369;28;20263;-77
2021/01/13 11:31:01;;;;;;;5.75;4.03;;;;;;;;;;5012693;28;20637;-76
2021/01/13 11:33:27;;;;;;;4.32;3.75;;;;;;;;;;5012461;28;20170;-78
2021/01/13 11:35:54;;;;;;;6.15;4.20;;;;;;;;;;5013225;28;20171;-76
2021/01/13 11:38:35;;;;;;;4.00;3.70;;;;;;;;;;5012854;28;20241;-77
2021/01/13 11:41:16;;;;;;;9.45;4.00;;;;;;;;;;5013601;28;20520;-77
2021/01/13 11:43:42;;;;;;;3.33;2.90;;;;;;;;;;5012895;28;20184;-79
2021/01/13 11:46:15;;;;;;;7.40;3.00;;;;;;;;;;5012665;28;20760;-76
2021/01/13 11:49:04;;;;;;;4.30;3.67;;;;;;;;;;5013281;28;20725;-76
2021/01/13 11:51:33;;;;;;;3.92;3.03;;;;;;;;;;5009751;28;20294;-77
2021/01/13 11:54:00;;;;;;;7.80;3.50;;;;;;;;;;5013119;28;20305;-76
2021/01/13 11:56:27;;;;;;;6.70;3.30;;;;;;;;;;5012798;28;20221;-75
2021/01/13 11:58:54;;;;;;;3.15;2.25;;;;;;;;;;5013086;28;20259;-76
2021/01/13 12:01:20;;;;;;;8.13;2.42;;;;;;;;;;5012561;28;20608;-76
2021/01/13 12:03:46;;;;;;;2.20;1.90;;;;;;;;;;5013033;28;20179;-75
2021/01/13 12:06:12;;;;;;;6.88;3.00;;;;;;;;;;5012498;28;20173;-77
2021/01/13 12:08:38;;;;;;;5.00;1.48;;;;;;;;;;5012684;28;20180;-76
2021/01/13 12:11:04;;;;;;;1.30;1.20;;;;;;;;;;5011458;28;20271;-76
2021/01/13 12:13:30;;;;;;;2.40;1.43;;;;;;;;;;5014168;28;20439;-75
2021/01/13 12:15:56;;;;;;;2.53;1.63;;;;;;;;;;5014125;28;20549;-76
2021/01/13 12:18:23;;;;;;;4.38;1.60;;;;;;;;;;5011772;28;20251;-75
2021/01/13 12:20:50;;;;;;;3.38;1.58;;;;;;;;;;5012101;28;20243;-75
2021/01/13 12:29:09;;;;;;;5.10;1.45;;;;;;;;;;5012240;28;20683;-76
2021/01/13 12:31:36;;;;;;;4.63;1.40;;;;;;;;;;5010685;28;20521;-75
2021/01/13 12:34:02;;;;;;;2.15;1.40;;;;;;;;;;5011049;28;20181;-76
2021/01/13 12:36:29;;;;;;;8.40;2.03;;;;;;;;;;5011917;28;20258;-76
2021/01/13 12:38:56;;;;;;;3.45;1.75;;;;;;;;;;5011765;28;20643;-76
2021/01/13 12:41:27;;;;;;;2.20;1.35;;;;;;;;;;5011932;28;20180;-76
2021/01/13 12:43:54;;;;;;;2.63;1.33;;;;;;;;;;5011837;28;20174;-76
2021/01/13 12:46:26;;;;;;;2.80;1.27;;;;;;;;;;5012220;28;20800;-76
2021/01/13 12:48:52;;;;;;;2.53;0.70;;;;;;;;;;5011652;28;20265;-76
2021/01/13 12:51:18;;;;;;;2.20;1.40;;;;;;;;;;5011487;28;20181;-76
2021/01/13 12:53:44;;;;;;;2.08;1.20;;;;;;;;;;5011286;28;20177;-76
2021/01/13 12:56:23;;;;;;;2.72;1.02;;;;;;;;;;5011835;28;20196;-77
2021/01/13 12:58:49;;;;;;;3.88;1.05;;;;;;;;;;5011721;28;20184;-76
2021/01/13 13:01:16;;;;;;;0.95;0.70;;;;;;;;;;5011881;28;20496;-75
2021/01/13 13:03:42;;;;;;;5.35;1.17;;;;;;;;;;5011249;28;20218;-76
2021/01/13 13:06:08;;;;;;;0.85;0.85;;;;;;;;;;5011317;28;20176;-75
2021/01/13 13:08:34;;;;;;;4.25;1.23;;;;;;;;;;5011114;28;20248;-76
2021/01/13 13:14:05;;;;;;;1.60;0.75;;;;;;;;;;5011322;28;20170;-75
2021/01/13 13:16:31;;;;;;;1.25;0.90;;;;;;;;;;5011568;28;20195;-76
2021/01/13 13:18:57;;;;;;;1.67;1.30;;;;;;;;;;5011087;28;20645;-76
2021/01/13 13:21:25;;;;;;;1.02;0.93;;;;;;;;;;5011118;28;20481;-75
2021/01/13 13:23:52;;;;;;;1.00;0.80;;;;;;;;;;5011192;28;20186;-76
2021/01/13 13:29:21;;;;;;;1.33;1.00;;;;;;;;;;5011617;28;20251;-74
2021/01/13 13:31:51;;;;;;;1.50;1.40;;;;;;;;;;5011605;28;20258;-75
2021/01/13 13:34:17;;;;;;;2.20;0.88;;;;;;;;;;5010624;28;20412;-76
2021/01/13 13:36:43;;;;;;;3.20;0.98;;;;;;;;;;5010954;28;20623;-76
2021/01/13 13:39:09;;;;;;;1.37;1.20;;;;;;;;;;5011306;28;20255;-75
2021/01/13 13:44:38;;;;;;;1.98;1.45;;;;;;;;;;5011545;28;20279;-75
2021/01/13 13:47:04;;;;;;;4.10;1.40;;;;;;;;;;5011069;28;20177;-75
2021/01/13 13:49:31;;;;;;;1.38;1.02;;;;;;;;;;5010066;28;20925;-75
2021/01/13 13:51:57;;;;;;;3.35;1.60;;;;;;;;;;5010855;28;20169;-75
2021/01/13 13:54:23;;;;;;;2.53;1.48;;;;;;;;;;5010982;28;20178;-76
2021/01/13 13:56:54;;;;;;;2.55;1.40;;;;;;;;;;5010768;28;20256;-75
2021/01/13 13:59:20;;;;;;;2.55;1.75;;;;;;;;;;5010773;28;20177;-75
2021/01/13 14:01:46;;;;;;;2.95;1.70;;;;;;;;;;5010978;28;20177;-76
2021/01/13 14:04:12;;;;;;;3.50;1.50;;;;;;;;;;5010547;28;20173;-75
2021/01/13 14:06:38;;;;;;;3.20;1.53;;;;;;;;;;5010986;28;20456;-75
2021/01/13 14:09:04;;;;;;;1.53;1.37;;;;;;;;;;5010703;28;20768;-74
2021/01/13 14:14:33;;;;;;;2.13;1.50;;;;;;;;;;5010787;28;20182;-76
2021/01/13 14:16:59;;;;;;;1.87;1.57;;;;;;;;;;5003858;28;20215;-75
2021/01/13 14:19:25;;;;;;;6.00;1.75;;;;;;;;;;5007176;28;20422;-76
2021/01/13 14:21:52;;;;;;;4.03;1.60;;;;;;;;;;5009174;28;20242;-75
2021/01/13 14:24:18;;;;;;;2.13;1.42;;;;;;;;;;5009733;28;20448;-76
2021/01/13 14:29:48;;;;;;;7.95;2.20;;;;;;;;;;5010904;28;20241;-76
2021/01/13 14:32:14;;;;;;;3.22;2.80;;;;;;;;;;5010948;28;20595;-75
2021/01/13 14:34:41;;;;;;;3.72;1.80;;;;;;;;;;5010610;28;20164;-76
2021/01/13 14:37:07;;;;;;;3.70;1.90;;;;;;;;;;5010690;28;20205;-76
2021/01/13 14:39:34;;;;;;;5.18;2.38;;;;;;;;;;5010372;28;20613;-75
2021/01/13 14:45:04;;;;;;;3.33;2.20;;;;;;;;;;5010768;28;20236;-75
2021/01/13 14:47:30;;;;;;;2.97;1.95;;;;;;;;;;5013089;28;20174;-75
2021/01/13 14:49:56;;;;;;;4.35;3.22;;;;;;;;;;5014015;28;20186;-75
2021/01/13 14:52:22;;;;;;;4.83;2.20;;;;;;;;;;5013900;28;20162;-75
2021/01/13 14:54:49;;;;;;;5.30;2.60;;;;;;;;;;5013809;28;21003;-75
2021/01/13 15:00:18;;;;;;;2.15;1.90;;;;;;;;;;5013759;28;20191;-75
2021/01/13 15:02:44;;;;;;;2.88;1.75;;;;;;;;;;5013559;28;20166;-75
2021/01/13 15:05:10;;;;;;;7.37;2.40;;;;;;;;;;5012993;28;20170;-75
2021/01/13 15:07:36;;;;;;;4.00;2.20;;;;;;;;;;5013242;28;20425;-75
2021/01/13 15:10:03;;;;;;;2.53;1.70;;;;;;;;;;5013233;28;20185;-76
2021/01/13 15:15:32;;;;;;;4.07;2.88;;;;;;;;;;5013954;28;20621;-76
2021/01/13 15:17:58;;;;;;;5.47;2.65;;;;;;;;;;5013267;28;20206;-76
2021/01/13 15:20:24;;;;;;;3.83;1.63;;;;;;;;;;5012884;28;20233;-76
2021/01/13 15:22:50;;;;;;;6.47;2.90;;;;;;;;;;5013029;28;20445;-77
2021/01/13 15:31:04;;;;;;;3.67;2.85;;;;;;;;;;5013937;28;20705;-76
2021/01/13 15:33:31;;;;;;;5.45;2.50;;;;;;;;;;5013656;28;20166;-76
2021/01/13 15:35:57;;;;;;;3.25;2.83;;;;;;;;;;5015010;28;20228;-76